Time;durP1;ratioP1;P1;durP2;ratioP2;P2;SDS_P1;SDS_P2;PMS_P1;PMS_P2;Temp;Humidity;BMP_temperature;BMP_pressure;BME280_temperature;BME280_humidity;BME280_pressure;Samples;Min_cycle;Max_cycle;Signal;HPM_P1;HPM_P2
2023/12/29 00:01:08;;;;;;;;;;;;;;;;;;5073674;28;1146;-58
2023/12/29 00:03:34;;;;;;;;;;;;;;;;;;5073839;28;911;-57
2023/12/29 00:06:01;;;;;;;;;;;;;;;;;;5072513;28;1801;-57
2023/12/29 00:08:27;;;;;;;;;;;;;;;;;;5073863;28;860;-57
2023/12/29 00:10:52;;;;;;;;;;;;;;;;;;5072695;28;896;-56
2023/12/29 00:13:22;;;;;;;;;;;;;;;;;;5073645;28;970;-57
2023/12/29 00:15:50;;;;;;;;;;;;;;;;;;5073459;28;1317;-58
2023/12/29 00:18:15;;;;;;;;;;;;;;;;;;5073582;28;2024;-57
2023/12/29 00:20:40;;;;;;;;;;;;;;;;;;5072580;28;848;-57
2023/12/29 00:23:06;;;;;;;;;;;;;;;;;;5073277;28;911;-57
2023/12/29 00:25:31;;;;;;;;;;;;;;;;;;5071674;28;844;-56
2023/12/29 00:27:57;;;;;;;;;;;;;;;;;;5072033;28;907;-56
2023/12/29 00:30:22;;;;;;;;;;;;;;;;;;5071716;28;841;-57
2023/12/29 00:32:47;;;;;;;;;;;;;;;;;;5071292;28;958;-58
2023/12/29 00:35:13;;;;;;;;;;;;;;;;;;5072016;28;777;-59
2023/12/29 00:37:38;;;;;;;;;;;;;;;;;;5072312;28;1902;-58
2023/12/29 00:40:05;;;;;;;;;;;;;;;;;;5073074;28;876;-57
2023/12/29 00:42:30;;;;;;;;;;;;;;;;;;5077647;28;880;-57
2023/12/29 00:44:55;;;;;;;;;;;;;;;;;;5077411;28;1006;-57
2023/12/29 00:47:23;;;;;;;;;;;;;;;;;;5077520;28;852;-57
2023/12/29 00:49:48;;;;;;;;;;;;;;;;;;5077605;28;875;-56
2023/12/29 00:52:14;;;;;;;;;;;;;;;;;;5077554;28;1121;-57
2023/12/29 00:54:40;;;;;;;;;;;;;;;;;;5077540;28;1218;-57
2023/12/29 00:57:05;;;;;;;;;;;;;;;;;;5077287;28;1957;-57
2023/12/29 00:59:30;;;;;;;;;;;;;;;;;;5077198;28;933;-57
2023/12/29 01:01:55;;;;;;;;;;;;;;;;;;5077429;28;937;-57
2023/12/29 01:04:21;;;;;;;;;;;;;;;;;;5076946;28;1003;-57
2023/12/29 01:06:46;;;;;;;;;;;;;;;;;;5077606;28;939;-57
2023/12/29 01:09:11;;;;;;;;;;;;;;;;;;5077157;28;1171;-58
2023/12/29 01:11:37;;;;;;;;;;;;;;;;;;5077555;28;924;-56
2023/12/29 01:14:02;;;;;;;;;;;;;;;;;;5076930;28;978;-57
2023/12/29 01:16:27;;;;;;;;;;;;;;;;;;5077145;28;1886;-57
2023/12/29 01:18:53;;;;;;;;;;;;;;;;;;5076965;28;1068;-57
2023/12/29 01:21:18;;;;;;;;;;;;;;;;;;5077393;28;891;-57
2023/12/29 01:23:43;;;;;;;;;;;;;;;;;;5076722;28;916;-57
2023/12/29 01:26:08;;;;;;;;;;;;;;;;;;5075946;28;1082;-57
2023/12/29 01:28:34;;;;;;;;;;;;;;;;;;5076814;28;821;-57
2023/12/29 01:30:59;;;;;;;;;;;;;;;;;;5076804;28;909;-56
2023/12/29 01:33:25;;;;;;;;;;;;;;;;;;5076684;28;819;-58
2023/12/29 01:35:50;;;;;;;;;;;;;;;;;;5076999;28;1072;-58
2023/12/29 01:38:15;;;;;;;;;;;;;;;;;;5076307;28;1910;-58
2023/12/29 01:40:44;;;;;;;;;;;;;;;;;;5076155;28;891;-58
2023/12/29 01:43:09;;;;;;;;;;;;;;;;;;5076561;28;845;-57
2023/12/29 01:45:35;;;;;;;;;;;;;;;;;;5076288;28;883;-57
2023/12/29 01:48:00;;;;;;;;;;;;;;;;;;5075867;28;908;-57
2023/12/29 01:50:26;;;;;;;;;;;;;;;;;;5074945;28;969;-58
2023/12/29 01:52:52;;;;;;;;;;;;;;;;;;5074754;28;852;-57
2023/12/29 01:55:23;;;;;;;;;;;;;;;;;;5075375;28;1196;-57
2023/12/29 01:57:48;;;;;;;;;;;;;;;;;;5076395;28;1905;-57
2023/12/29 02:00:16;;;;;;;;;;;;;;;;;;5076209;28;1272;-57
2023/12/29 02:02:41;;;;;;;;;;;;;;;;;;5075950;28;965;-58
2023/12/29 02:05:06;;;;;;;;;;;;;;;;;;5075935;28;903;-57
2023/12/29 02:07:32;;;;;;;;;;;;;;;;;;5075727;28;860;-57
2023/12/29 02:09:58;;;;;;;;;;;;;;;;;;5075645;28;848;-57
2023/12/29 02:12:23;;;;;;;;;;;;;;;;;;5075621;28;912;-57
2023/12/29 02:14:48;;;;;;;;;;;;;;;;;;5075738;28;867;-58
2023/12/29 02:17:18;;;;;;;;;;;;;;;;;;5075638;28;1902;-58
2023/12/29 02:19:45;;;;;;;;;;;;;;;;;;5075780;28;932;-58
2023/12/29 02:22:11;;;;;;;;;;;;;;;;;;5074995;28;1219;-58
2023/12/29 02:24:36;;;;;;;;;;;;;;;;;;5093650;28;1254;-58
2023/12/29 02:27:10;;;;;;;;;;;;;;;;;;5093738;28;900;-57
2023/12/29 02:29:38;;;;;;;;;;;;;;;;;;5094032;28;943;-57
2023/12/29 02:32:05;;;;;;;;;;;;;;;;;;5093416;28;836;-58
2023/12/29 02:34:32;;;;;;;;;;;;;;;;;;5094128;28;951;-58
2023/12/29 02:36:58;;;;;;;;;;;;;;;;;;5094057;28;1894;-58
2023/12/29 02:39:23;;;;;;;;;;;;;;;;;;5093980;28;1083;-58
2023/12/29 02:41:48;;;;;;;;;;;;;;;;;;5077680;28;1450;-58
2023/12/29 02:44:14;;;;;;;;;;;;;;;;;;5095763;28;828;-58
2023/12/29 02:46:39;;;;;;;;;;;;;;;;;;5095493;28;824;-58
2023/12/29 02:49:04;;;;;;;;;;;;;;;;;;5095381;28;935;-58
2023/12/29 02:51:30;;;;;;;;;;;;;;;;;;5095635;28;824;-57
2023/12/29 02:53:56;;;;;;;;;;;;;;;;;;5095559;28;909;-58
2023/12/29 02:56:22;;;;;;;;;;;;;;;;;;5095313;28;1882;-58
2023/12/29 02:58:48;;;;;;;;;;;;;;;;;;5095330;28;852;-58
2023/12/29 03:01:13;;;;;;;;;;;;;;;;;;5094303;28;825;-57
2023/12/29 03:03:39;;;;;;;;;;;;;;;;;;5095142;28;920;-58
2023/12/29 03:06:05;;;;;;;;;;;;;;;;;;5095550;28;903;-58
2023/12/29 03:08:31;;;;;;;;;;;;;;;;;;5095911;28;935;-57
2023/12/29 03:10:56;;;;;;;;;;;;;;;;;;5094770;28;808;-58
2023/12/29 03:13:21;;;;;;;;;;;;;;;;;;5094918;28;816;-58
2023/12/29 03:15:47;;;;;;;;;;;;;;;;;;5094663;28;1030;-57
2023/12/29 03:18:12;;;;;;;;;;;;;;;;;;5094964;28;1897;-57
2023/12/29 03:20:37;;;;;;;;;;;;;;;;;;5095186;28;816;-57
2023/12/29 03:23:02;;;;;;;;;;;;;;;;;;5094666;28;887;-57
2023/12/29 03:25:28;;;;;;;;;;;;;;;;;;5094803;28;907;-57
2023/12/29 03:27:53;;;;;;;;;;;;;;;;;;5095120;28;879;-58
2023/12/29 03:30:18;;;;;;;;;;;;;;;;;;5094686;28;879;-56
2023/12/29 03:32:43;;;;;;;;;;;;;;;;;;5094581;28;876;-57
2023/12/29 03:35:09;;;;;;;;;;;;;;;;;;5094855;28;852;-57
2023/12/29 03:37:34;;;;;;;;;;;;;;;;;;5093492;28;1906;-57
2023/12/29 03:39:59;;;;;;;;;;;;;;;;;;5094783;28;778;-57
2023/12/29 03:42:25;;;;;;;;;;;;;;;;;;5094505;28;868;-57
2023/12/29 03:44:50;;;;;;;;;;;;;;;;;;5093177;28;1003;-57
2023/12/29 03:47:15;;;;;;;;;;;;;;;;;;5094055;28;994;-57
2023/12/29 03:49:40;;;;;;;;;;;;;;;;;;5094662;28;887;-57
2023/12/29 03:52:06;;;;;;;;;;;;;;;;;;5094399;28;866;-57
2023/12/29 03:54:31;;;;;;;;;;;;;;;;;;5094417;28;971;-56
2023/12/29 03:56:56;;;;;;;;;;;;;;;;;;5094179;28;1948;-57
2023/12/29 03:59:21;;;;;;;;;;;;;;;;;;5093855;28;886;-56
2023/12/29 04:01:47;;;;;;;;;;;;;;;;;;5094236;28;836;-57
2023/12/29 04:04:12;;;;;;;;;;;;;;;;;;5094313;28;1088;-57
2023/12/29 04:06:37;;;;;;;;;;;;;;;;;;5094156;28;800;-56
2023/12/29 04:09:03;;;;;;;;;;;;;;;;;;5092821;28;861;-57
2023/12/29 04:11:28;;;;;;;;;;;;;;;;;;5093866;28;841;-57
2023/12/29 04:13:53;;;;;;;;;;;;;;;;;;5094285;28;1029;-57
2023/12/29 04:16:19;;;;;;;;;;;;;;;;;;5093695;28;1961;-57
2023/12/29 04:18:44;;;;;;;;;;;;;;;;;;5093960;28;904;-57
2023/12/29 04:21:13;;;;;;;;;;;;;;;;;;5094330;28;935;-57
2023/12/29 04:23:38;;;;;;;;;;;;;;;;;;5094218;28;1009;-57
2023/12/29 04:26:04;;;;;;;;;;;;;;;;;;5094217;28;974;-57
2023/12/29 04:28:29;;;;;;;;;;;;;;;;;;5094367;28;872;-57
2023/12/29 04:30:54;;;;;;;;;;;;;;;;;;5094284;28;932;-57
2023/12/29 04:33:19;;;;;;;;;;;;;;;;;;5094138;28;1038;-57
2023/12/29 04:35:44;;;;;;;;;;;;;;;;;;5094491;28;888;-57
2023/12/29 04:38:10;;;;;;;;;;;;;;;;;;5093789;28;1890;-57
2023/12/29 04:40:35;;;;;;;;;;;;;;;;;;5093924;28;899;-58
2023/12/29 04:43:01;;;;;;;;;;;;;;;;;;5092408;28;919;-57
2023/12/29 04:45:26;;;;;;;;;;;;;;;;;;5093500;28;903;-58
2023/12/29 04:47:51;;;;;;;;;;;;;;;;;;5093638;28;892;-57
2023/12/29 04:50:16;;;;;;;;;;;;;;;;;;5093821;28;1042;-56
2023/12/29 04:52:42;;;;;;;;;;;;;;;;;;5093662;28;1050;-57
2023/12/29 04:55:07;;;;;;;;;;;;;;;;;;5093915;28;1089;-57
2023/12/29 04:57:32;;;;;;;;;;;;;;;;;;5091905;28;1894;-57
2023/12/29 04:59:57;;;;;;;;;;;;;;;;;;5093573;28;934;-58
2023/12/29 05:02:23;;;;;;;;;;;;;;;;;;5092203;28;848;-58
2023/12/29 05:04:48;;;;;;;;;;;;;;;;;;5092119;28;797;-56
2023/12/29 05:07:13;;;;;;;;;;;;;;;;;;5090650;28;896;-57
2023/12/29 05:09:39;;;;;;;;;;;;;;;;;;5091886;28;879;-58
2023/12/29 05:12:04;;;;;;;;;;;;;;;;;;5092275;28;916;-58
2023/12/29 05:14:30;;;;;;;;;;;;;;;;;;5092357;28;738;-56
2023/12/29 05:16:55;;;;;;;;;;;;;;;;;;5091777;28;1894;-57
2023/12/29 05:19:20;;;;;;;;;;;;;;;;;;5092625;28;1034;-56
2023/12/29 05:21:45;;;;;;;;;;;;;;;;;;5093480;28;699;-57
2023/12/29 05:24:11;;;;;;;;;;;;;;;;;;5093378;28;946;-57
2023/12/29 05:26:36;;;;;;;;;;;;;;;;;;5094442;28;984;-57
2023/12/29 05:29:02;;;;;;;;;;;;;;;;;;5095675;28;725;-57
2023/12/29 05:31:27;;;;;;;;;;;;;;;;;;5084559;28;1233;-57
2023/12/29 05:33:54;;;;;;;;;;;;;;;;;;5080458;28;1223;-57
2023/12/29 05:36:19;;;;;;;;;;;;;;;;;;5076054;28;1922;-57
2023/12/29 05:38:46;;;;;;;;;;;;;;;;;;5076571;28;962;-57
2023/12/29 05:41:15;;;;;;;;;;;;;;;;;;5076265;28;916;-56
2023/12/29 05:43:40;;;;;;;;;;;;;;;;;;5076454;28;1634;-57
2023/12/29 05:46:10;;;;;;;;;;;;;;;;;;5074876;28;919;-57
2023/12/29 05:48:35;;;;;;;;;;;;;;;;;;5076800;28;905;-57
2023/12/29 05:51:05;;;;;;;;;;;;;;;;;;5076404;28;911;-57
2023/12/29 05:53:30;;;;;;;;;;;;;;;;;;5076507;28;987;-57
2023/12/29 05:55:56;;;;;;;;;;;;;;;;;;5076482;28;1203;-57
2023/12/29 05:58:21;;;;;;;;;;;;;;;;;;5076504;28;1949;-57
2023/12/29 06:00:46;;;;;;;;;;;;;;;;;;5076390;28;895;-57
2023/12/29 06:03:11;;;;;;;;;;;;;;;;;;5076474;28;805;-57
2023/12/29 06:05:37;;;;;;;;;;;;;;;;;;5076511;28;879;-57
2023/12/29 06:08:02;;;;;;;;;;;;;;;;;;5076272;28;876;-57
2023/12/29 06:10:27;;;;;;;;;;;;;;;;;;5076152;28;872;-57
2023/12/29 06:12:53;;;;;;;;;;;;;;;;;;5076686;28;903;-57
2023/12/29 06:15:18;;;;;;;;;;;;;;;;;;5076133;28;1551;-57
2023/12/29 06:17:43;;;;;;;;;;;;;;;;;;5075051;28;1981;-57
2023/12/29 06:20:10;;;;;;;;;;;;;;;;;;5076279;28;825;-57
2023/12/29 06:22:39;;;;;;;;;;;;;;;;;;5075927;28;927;-57
2023/12/29 06:25:05;;;;;;;;;;;;;;;;;;5058109;28;1087;-57
2023/12/29 06:27:32;;;;;;;;;;;;;;;;;;5075578;28;899;-57
2023/12/29 06:29:57;;;;;;;;;;;;;;;;;;5073882;28;771;-58
2023/12/29 06:32:22;;;;;;;;;;;;;;;;;;5075416;28;1065;-57
2023/12/29 06:34:47;;;;;;;;;;;;;;;;;;5075355;28;970;-57
2023/12/29 06:37:13;;;;;;;;;;;;;;;;;;5073534;28;1910;-58
2023/12/29 06:39:39;;;;;;;;;;;;;;;;;;5074899;28;888;-58
2023/12/29 06:42:05;;;;;;;;;;;;;;;;;;5075331;28;829;-58
2023/12/29 06:44:30;;;;;;;;;;;;;;;;;;5075227;28;872;-58
2023/12/29 06:46:56;;;;;;;;;;;;;;;;;;5075211;28;828;-58
2023/12/29 06:49:21;;;;;;;;;;;;;;;;;;5075258;28;852;-58
2023/12/29 06:51:46;;;;;;;;;;;;;;;;;;5075206;28;872;-58
2023/12/29 06:54:12;;;;;;;;;;;;;;;;;;5075233;28;959;-58
2023/12/29 06:56:37;;;;;;;;;;;;;;;;;;5075078;28;1910;-58
2023/12/29 06:59:02;;;;;;;;;;;;;;;;;;5075101;28;916;-56
2023/12/29 07:01:27;;;;;;;;;;;;;;;;;;5073592;28;927;-58
2023/12/29 07:03:53;;;;;;;;;;;;;;;;;;5073114;28;1199;-58
2023/12/29 07:06:18;;;;;;;;;;;;;;;;;;5070932;28;1215;-58
2023/12/29 07:08:43;;;;;;;;;;;;;;;;;;5075877;28;1091;-55
2023/12/29 07:11:09;;;;;;;;;;;;;;;;;;5079461;28;1182;-56
2023/12/29 07:13:35;;;;;;;;;;;;;;;;;;5077039;28;1167;-56
2023/12/29 07:16:01;;;;;;;;;;;;;;;;;;5091233;28;1139;-56
2023/12/29 07:18:26;;;;;;;;;;;;;;;;;;5084878;28;1902;-57
2023/12/29 07:20:51;;;;;;;;;;;;;;;;;;5077000;28;1152;-58
2023/12/29 07:23:17;;;;;;;;;;;;;;;;;;5072586;28;1188;-58
2023/12/29 07:25:42;;;;;;;;;;;;;;;;;;5072352;28;1155;-57
2023/12/29 07:28:07;;;;;;;;;;;;;;;;;;5072333;28;1171;-57
2023/12/29 07:30:32;;;;;;;;;;;;;;;;;;5072475;28;1243;-57
2023/12/29 07:32:58;;;;;;;;;;;;;;;;;;5072319;28;1202;-57
2023/12/29 07:35:23;;;;;;;;;;;;;;;;;;5072095;28;1258;-57
2023/12/29 07:37:48;;;;;;;;;;;;;;;;;;5079957;28;1917;-57
2023/12/29 07:40:14;;;;;;;;;;;;;;;;;;5094439;28;891;-57
2023/12/29 07:42:39;;;;;;;;;;;;;;;;;;5094703;28;852;-56
2023/12/29 07:45:05;;;;;;;;;;;;;;;;;;5094491;28;989;-56
2023/12/29 07:47:30;;;;;;;;;;;;;;;;;;5094312;28;847;-57
2023/12/29 07:49:56;;;;;;;;;;;;;;;;;;5093384;28;967;-56
2023/12/29 07:52:21;;;;;;;;;;;;;;;;;;5094170;28;907;-58
2023/12/29 07:54:46;;;;;;;;;;;;;;;;;;5094141;28;965;-56
2023/12/29 07:57:12;;;;;;;;;;;;;;;;;;5094136;28;1963;-57
2023/12/29 07:59:37;;;;;;;;;;;;;;;;;;5093298;28;855;-57
2023/12/29 08:02:02;;;;;;;;;;;;;;;;;;5094152;28;908;-57
2023/12/29 08:04:28;;;;;;;;;;;;;;;;;;5093194;28;1183;-57
2023/12/29 08:06:53;;;;;;;;;;;;;;;;;;5089777;28;1143;-57
2023/12/29 08:09:19;;;;;;;;;;;;;;;;;;5089312;28;1203;-57
2023/12/29 08:11:45;;;;;;;;;;;;;;;;;;5079929;28;1028;-57
2023/12/29 08:14:11;;;;;;;;;;;;;;;;;;5090582;28;1144;-58
2023/12/29 08:16:42;;;;;;;;;;;;;;;;;;5092384;28;1956;-57
2023/12/29 08:19:07;;;;;;;;;;;;;;;;;;5092409;28;849;-56
2023/12/29 08:21:33;;;;;;;;;;;;;;;;;;5092764;28;887;-57
2023/12/29 08:23:58;;;;;;;;;;;;;;;;;;5073612;28;1167;-57
2023/12/29 08:26:23;;;;;;;;;;;;;;;;;;5073843;28;888;-57
2023/12/29 08:28:48;;;;;;;;;;;;;;;;;;5073945;28;974;-56
2023/12/29 08:31:14;;;;;;;;;;;;;;;;;;5073590;28;828;-57
2023/12/29 08:33:40;;;;;;;;;;;;;;;;;;5073833;28;833;-57
2023/12/29 08:36:06;;;;;;;;;;;;;;;;;;5073727;28;813;-57
2023/12/29 08:38:31;;;;;;;;;;;;;;;;;;5073446;28;1976;-58
2023/12/29 08:40:57;;;;;;;;;;;;;;;;;;5074019;28;879;-57
2023/12/29 08:43:22;;;;;;;;;;;;;;;;;;5072339;28;690;-57
2023/12/29 08:45:48;;;;;;;;;;;;;;;;;;5073540;28;911;-56
2023/12/29 08:48:13;;;;;;;;;;;;;;;;;;5073588;28;801;-57
2023/12/29 08:50:38;;;;;;;;;;;;;;;;;;5073422;28;864;-57
2023/12/29 08:53:04;;;;;;;;;;;;;;;;;;5073867;28;840;-57
2023/12/29 08:55:29;;;;;;;;;;;;;;;;;;5073903;28;966;-57
2023/12/29 08:57:54;;;;;;;;;;;;;;;;;;5073563;28;1918;-57
2023/12/29 09:00:20;;;;;;;;;;;;;;;;;;5073808;28;955;-57
2023/12/29 09:02:46;;;;;;;;;;;;;;;;;;5076507;28;907;-58
2023/12/29 09:05:11;;;;;;;;;;;;;;;;;;5077185;28;1243;-57
2023/12/29 09:07:36;;;;;;;;;;;;;;;;;;5076401;28;994;-57
2023/12/29 09:10:03;;;;;;;;;;;;;;;;;;5075228;28;841;-57
2023/12/29 09:12:28;;;;;;;;;;;;;;;;;;5075219;28;1059;-56
2023/12/29 09:14:53;;;;;;;;;;;;;;;;;;5075525;28;820;-57
2023/12/29 09:17:18;;;;;;;;;;;;;;;;;;5075478;28;1906;-57
2023/12/29 09:19:44;;;;;;;;;;;;;;;;;;5075691;28;860;-56
2023/12/29 09:22:10;;;;;;;;;;;;;;;;;;5075982;28;848;-56
2023/12/29 09:24:35;;;;;;;;;;;;;;;;;;5077193;28;895;-56
2023/12/29 09:27:01;;;;;;;;;;;;;;;;;;5076664;28;904;-56
2023/12/29 09:29:26;;;;;;;;;;;;;;;;;;5075056;28;863;-56
2023/12/29 09:31:51;;;;;;;;;;;;;;;;;;5075599;28;844;-56
2023/12/29 09:34:17;;;;;;;;;;;;;;;;;;5076999;28;839;-57
2023/12/29 09:36:42;;;;;;;;;;;;;;;;;;5076592;28;1893;-56
2023/12/29 09:39:08;;;;;;;;;;;;;;;;;;5076692;28;908;-56
2023/12/29 09:41:33;;;;;;;;;;;;;;;;;;5076683;28;833;-55
2023/12/29 09:44:01;;;;;;;;;;;;;;;;;;5076807;28;915;-58
2023/12/29 09:46:28;;;;;;;;;;;;;;;;;;5076781;28;876;-57
2023/12/29 09:48:55;;;;;;;;;;;;;;;;;;5076416;28;900;-57
2023/12/29 09:51:23;;;;;;;;;;;;;;;;;;5076371;28;820;-56
2023/12/29 09:53:49;;;;;;;;;;;;;;;;;;5076710;28;875;-56
2023/12/29 09:56:15;;;;;;;;;;;;;;;;;;5076072;28;1910;-57
2023/12/29 09:58:41;;;;;;;;;;;;;;;;;;5075984;28;979;-56
2023/12/29 10:01:06;;;;;;;;;;;;;;;;;;5076335;28;1040;-57
2023/12/29 10:03:32;;;;;;;;;;;;;;;;;;5076011;28;875;-57
2023/12/29 10:05:59;;;;;;;;;;;;;;;;;;5075709;28;836;-57
2023/12/29 10:08:26;;;;;;;;;;;;;;;;;;5074235;28;1149;-57
2023/12/29 10:10:52;;;;;;;;;;;;;;;;;;5074362;28;983;-57
2023/12/29 10:13:19;;;;;;;;;;;;;;;;;;5071543;28;1176;-57
2023/12/29 10:16:02;;;;;;;;;;;;;;;;;;5074189;28;936;-57
2023/12/29 10:18:38;;;;;;;;;;;;;;;;;;5073018;28;1961;-57
2023/12/29 10:21:15;;;;;;;;;;;;;;;;;;5076743;28;1183;-56
2023/12/29 10:23:46;;;;;;;;;;;;;;;;;;5082621;28;1215;-57
2023/12/29 10:26:11;;;;;;;;;;;;;;;;;;5072865;28;1176;-54
2023/12/29 10:28:37;;;;;;;;;;;;;;;;;;5073233;28;1215;-56
2023/12/29 10:31:03;;;;;;;;;;;;;;;;;;5083375;28;1162;-56
2023/12/29 10:33:31;;;;;;;;;;;;;;;;;;5081864;28;1206;-56
2023/12/29 10:35:58;;;;;;;;;;;;;;;;;;5073972;28;1152;-57
2023/12/29 10:38:24;;;;;;;;;;;;;;;;;;5073179;28;2494;-57
2023/12/29 10:40:49;;;;;;;;;;;;;;;;;;5081748;28;1097;-60
2023/12/29 10:43:21;;;;;;;;;;;;;;;;;;5083233;28;1215;-58
2023/12/29 10:45:47;;;;;;;;;;;;;;;;;;5078182;28;1156;-58
2023/12/29 10:48:21;;;;;;;;;;;;;;;;;;5087741;28;1285;-58
2023/12/29 10:50:46;;;;;;;;;;;;;;;;;;5089734;28;1143;-58
2023/12/29 10:53:12;;;;;;;;;;;;;;;;;;5082607;28;1168;-59
2023/12/29 10:55:37;;;;;;;;;;;;;;;;;;5079789;28;1175;-58
2023/12/29 10:58:03;;;;;;;;;;;;;;;;;;5073708;28;1894;-57
2023/12/29 11:00:32;;;;;;;;;;;;;;;;;;5075690;28;1163;-58
2023/12/29 11:02:58;;;;;;;;;;;;;;;;;;5078762;28;1333;-59
2023/12/29 11:05:26;;;;;;;;;;;;;;;;;;5079141;28;1175;-57
2023/12/29 11:07:54;;;;;;;;;;;;;;;;;;5074929;28;1175;-57
2023/12/29 11:10:20;;;;;;;;;;;;;;;;;;5084594;28;1120;-56
2023/12/29 11:12:45;;;;;;;;;;;;;;;;;;5073834;28;1183;-58
2023/12/29 11:15:13;;;;;;;;;;;;;;;;;;5078304;28;1180;-58
2023/12/29 11:17:38;;;;;;;;;;;;;;;;;;5076648;28;1897;-57
2023/12/29 11:20:04;;;;;;;;;;;;;;;;;;5075147;28;1250;-57
2023/12/29 11:22:30;;;;;;;;;;;;;;;;;;5069648;28;1270;-57
2023/12/29 11:24:58;;;;;;;;;;;;;;;;;;5076754;28;1152;-57
2023/12/29 11:27:25;;;;;;;;;;;;;;;;;;5090821;28;1135;-57
2023/12/29 11:29:50;;;;;;;;;;;;;;;;;;5096705;28;911;-58
2023/12/29 11:32:18;;;;;;;;;;;;;;;;;;5095355;28;887;-57
2023/12/29 11:34:48;;;;;;;;;;;;;;;;;;5092342;28;895;-57
2023/12/29 11:37:28;;;;;;;;;;;;;;;;;;5093996;28;1959;-57
2023/12/29 11:40:00;;;;;;;;;;;;;;;;;;5094826;28;876;-57
2023/12/29 11:42:31;;;;;;;;;;;;;;;;;;5095048;28;907;-57
2023/12/29 11:44:56;;;;;;;;;;;;;;;;;;5094871;28;1126;-57
2023/12/29 11:47:35;;;;;;;;;;;;;;;;;;5093099;28;835;-57
2023/12/29 11:50:01;;;;;;;;;;;;;;;;;;5094566;28;876;-58
2023/12/29 11:52:36;;;;;;;;;;;;;;;;;;5095637;28;820;-58
2023/12/29 11:55:09;;;;;;;;;;;;;;;;;;5094565;28;961;-58
2023/12/29 11:57:36;;;;;;;;;;;;;;;;;;5093827;28;1898;-58
2023/12/29 12:00:01;;;;;;;;;;;;;;;;;;5095547;28;949;-58
2023/12/29 12:02:27;;;;;;;;;;;;;;;;;;5095077;28;808;-58
2023/12/29 12:04:52;;;;;;;;;;;;;;;;;;5076919;28;861;-58
2023/12/29 12:07:37;;;;;;;;;;;;;;;;;;5094877;28;880;-57
2023/12/29 12:10:22;;;;;;;;;;;;;;;;;;5087358;28;1136;-57
2023/12/29 12:12:51;;;;;;;;;;;;;;;;;;5070094;28;1211;-59
2023/12/29 12:15:32;;;;;;;;;;;;;;;;;;5074848;28;1154;-59
2023/12/29 12:17:57;;;;;;;;;;;;;;;;;;5079972;28;1863;-58
2023/12/29 12:20:22;;;;;;;;;;;;;;;;;;5081879;28;1218;-57
2023/12/29 12:22:57;;;;;;;;;;;;;;;;;;5071284;28;1211;-58
2023/12/29 12:25:26;;;;;;;;;;;;;;;;;;5075274;28;1195;-58
2023/12/29 12:27:51;;;;;;;;;;;;;;;;;;5087717;28;1175;-57
2023/12/29 12:30:20;;;;;;;;;;;;;;;;;;5074235;28;1246;-57
2023/12/29 12:32:46;;;;;;;;;;;;;;;;;;5073051;28;817;-57
2023/12/29 12:35:17;;;;;;;;;;;;;;;;;;5070727;28;959;-57
2023/12/29 12:37:43;;;;;;;;;;;;;;;;;;5075437;28;1905;-57
2023/12/29 12:40:08;;;;;;;;;;;;;;;;;;5076875;28;829;-57
2023/12/29 12:42:38;;;;;;;;;;;;;;;;;;5078323;28;861;-57
2023/12/29 12:45:06;;;;;;;;;;;;;;;;;;5078069;28;821;-57
2023/12/29 12:47:37;;;;;;;;;;;;;;;;;;5077531;28;987;-59
2023/12/29 12:50:04;;;;;;;;;;;;;;;;;;5077930;28;923;-58
2023/12/29 12:52:33;;;;;;;;;;;;;;;;;;5077003;28;949;-59
2023/12/29 12:54:58;;;;;;;;;;;;;;;;;;5078218;28;949;-58
2023/12/29 12:57:24;;;;;;;;;;;;;;;;;;5078088;28;1941;-57
2023/12/29 12:59:50;;;;;;;;;;;;;;;;;;5078004;28;812;-57
2023/12/29 13:02:15;;;;;;;;;;;;;;;;;;5078162;28;828;-57
2023/12/29 13:04:42;;;;;;;;;;;;;;;;;;5077931;28;924;-56
2023/12/29 13:07:08;;;;;;;;;;;;;;;;;;5077710;28;910;-56
2023/12/29 13:09:35;;;;;;;;;;;;;;;;;;5075094;28;1340;-57
2023/12/29 13:12:07;;;;;;;;;;;;;;;;;;5081170;28;1234;-57
2023/12/29 13:14:32;;;;;;;;;;;;;;;;;;5075319;28;1085;-56
2023/12/29 13:16:58;;;;;;;;;;;;;;;;;;5086886;28;1961;-56
2023/12/29 13:19:23;;;;;;;;;;;;;;;;;;5091980;28;1334;-55
2023/12/29 13:21:58;;;;;;;;;;;;;;;;;;5073604;28;1158;-56
2023/12/29 13:24:24;;;;;;;;;;;;;;;;;;5071564;28;1089;-55
2023/12/29 13:26:52;;;;;;;;;;;;;;;;;;5074093;28;1199;-55
2023/12/29 13:29:21;;;;;;;;;;;;;;;;;;5094335;28;1283;-58
2023/12/29 13:31:48;;;;;;;;;;;;;;;;;;5093434;28;1219;-56
2023/12/29 13:34:31;;;;;;;;;;;;;;;;;;5094803;28;1258;-56
2023/12/29 13:37:06;;;;;;;;;;;;;;;;;;5096691;28;1905;-56
2023/12/29 13:39:31;;;;;;;;;;;;;;;;;;5097172;28;1128;-57
2023/12/29 13:41:58;;;;;;;;;;;;;;;;;;5097325;28;722;-56
2023/12/29 13:44:24;;;;;;;;;;;;;;;;;;5096813;28;1061;-56
2023/12/29 13:46:50;;;;;;;;;;;;;;;;;;5097005;28;871;-56
2023/12/29 13:49:16;;;;;;;;;;;;;;;;;;5096957;28;919;-55
2023/12/29 13:51:42;;;;;;;;;;;;;;;;;;5096513;28;935;-56
2023/12/29 13:54:07;;;;;;;;;;;;;;;;;;5097034;28;990;-56
2023/12/29 13:56:33;;;;;;;;;;;;;;;;;;5096945;28;1882;-56
2023/12/29 13:59:04;;;;;;;;;;;;;;;;;;5095946;28;1596;-57
2023/12/29 14:01:34;;;;;;;;;;;;;;;;;;5096663;28;891;-57
2023/12/29 14:04:02;;;;;;;;;;;;;;;;;;5097247;28;821;-57
2023/12/29 14:06:35;;;;;;;;;;;;;;;;;;5096624;28;868;-57
2023/12/29 14:09:01;;;;;;;;;;;;;;;;;;5096788;28;832;-57
2023/12/29 14:11:26;;;;;;;;;;;;;;;;;;5092299;28;1227;-58
2023/12/29 14:13:51;;;;;;;;;;;;;;;;;;5092272;28;1206;-57
2023/12/29 14:16:20;;;;;;;;;;;;;;;;;;5078348;28;1573;-57
2023/12/29 14:18:46;;;;;;;;;;;;;;;;;;5075133;28;1953;-57
2023/12/29 14:21:33;;;;;;;;;;;;;;;;;;5075265;28;1151;-57
2023/12/29 14:24:01;;;;;;;;;;;;;;;;;;5072276;28;1151;-57
2023/12/29 14:26:26;;;;;;;;;;;;;;;;;;5078450;28;1503;-58
2023/12/29 14:29:01;;;;;;;;;;;;;;;;;;5085757;28;1222;-57
2023/12/29 14:31:27;;;;;;;;;;;;;;;;;;5072995;28;1136;-57
2023/12/29 14:33:52;;;;;;;;;;;;;;;;;;5073602;28;1207;-58
2023/12/29 14:36:17;;;;;;;;;;;;;;;;;;5072884;28;1171;-57
2023/12/29 14:38:43;;;;;;;;;;;;;;;;;;5075795;28;1977;-58
2023/12/29 14:41:08;;;;;;;;;;;;;;;;;;5075833;28;1046;-58
2023/12/29 14:43:33;;;;;;;;;;;;;;;;;;5075969;28;848;-58
2023/12/29 14:45:58;;;;;;;;;;;;;;;;;;5075834;28;840;-59
2023/12/29 14:48:24;;;;;;;;;;;;;;;;;;5075780;28;1007;-58
2023/12/29 14:50:49;;;;;;;;;;;;;;;;;;5075489;28;909;-59
2023/12/29 14:53:15;;;;;;;;;;;;;;;;;;5075353;28;1020;-59
2023/12/29 14:55:41;;;;;;;;;;;;;;;;;;5075759;28;1042;-58
2023/12/29 14:58:06;;;;;;;;;;;;;;;;;;5074627;28;1961;-58
2023/12/29 15:00:32;;;;;;;;;;;;;;;;;;5074471;28;833;-58
2023/12/29 15:02:57;;;;;;;;;;;;;;;;;;5075254;28;568;-58
2023/12/29 15:05:22;;;;;;;;;;;;;;;;;;5075295;28;829;-58
2023/12/29 15:07:47;;;;;;;;;;;;;;;;;;5075189;28;940;-58
2023/12/29 15:10:13;;;;;;;;;;;;;;;;;;5075318;28;891;-58
2023/12/29 15:12:40;;;;;;;;;;;;;;;;;;5073713;28;1183;-58
2023/12/29 15:15:06;;;;;;;;;;;;;;;;;;5073112;28;832;-58
2023/12/29 15:17:31;;;;;;;;;;;;;;;;;;5072691;28;1967;-58
2023/12/29 15:19:56;;;;;;;;;;;;;;;;;;5073054;28;880;-58
2023/12/29 15:22:26;;;;;;;;;;;;;;;;;;5072820;28;1053;-58
2023/12/29 15:24:51;;;;;;;;;;;;;;;;;;5070998;28;757;-59
2023/12/29 15:27:16;;;;;;;;;;;;;;;;;;5072757;28;915;-58
2023/12/29 15:29:41;;;;;;;;;;;;;;;;;;5073810;28;1336;-58
2023/12/29 15:32:07;;;;;;;;;;;;;;;;;;5074754;28;856;-59
2023/12/29 15:34:32;;;;;;;;;;;;;;;;;;5074648;28;1186;-57
2023/12/29 15:36:57;;;;;;;;;;;;;;;;;;5074262;28;1890;-58
2023/12/29 15:39:23;;;;;;;;;;;;;;;;;;5074662;28;880;-57
2023/12/29 15:41:48;;;;;;;;;;;;;;;;;;5074419;28;891;-57
2023/12/29 15:44:13;;;;;;;;;;;;;;;;;;5074674;28;822;-57
2023/12/29 15:46:39;;;;;;;;;;;;;;;;;;5074905;28;872;-58
2023/12/29 15:49:04;;;;;;;;;;;;;;;;;;5073277;28;1199;-59
2023/12/29 15:51:30;;;;;;;;;;;;;;;;;;5081821;28;1207;-58
2023/12/29 15:53:55;;;;;;;;;;;;;;;;;;5074803;28;1131;-59
2023/12/29 15:56:21;;;;;;;;;;;;;;;;;;5083572;28;1277;-58
2023/12/29 15:58:47;;;;;;;;;;;;;;;;;;5092215;28;1909;-59
2023/12/29 16:01:24;;;;;;;;;;;;;;;;;;5077263;28;1230;-59
2023/12/29 16:03:50;;;;;;;;;;;;;;;;;;5071292;28;1223;-57
2023/12/29 16:06:22;;;;;;;;;;;;;;;;;;5090652;28;1188;-57
2023/12/29 16:08:47;;;;;;;;;;;;;;;;;;5076019;28;1370;-58
2023/12/29 16:11:22;;;;;;;;;;;;;;;;;;5093040;28;864;-59
2023/12/29 16:13:48;;;;;;;;;;;;;;;;;;5092334;28;1147;-58
2023/12/29 16:16:13;;;;;;;;;;;;;;;;;;5086470;28;1210;-57
2023/12/29 16:18:39;;;;;;;;;;;;;;;;;;5089767;28;1967;-58
2023/12/29 16:21:04;;;;;;;;;;;;;;;;;;5092308;28;891;-59
2023/12/29 16:23:29;;;;;;;;;;;;;;;;;;5092191;28;970;-58
2023/12/29 16:25:55;;;;;;;;;;;;;;;;;;5092475;28;959;-58
2023/12/29 16:28:20;;;;;;;;;;;;;;;;;;5091821;28;1003;-58
2023/12/29 16:30:46;;;;;;;;;;;;;;;;;;5093268;28;1034;-57
2023/12/29 16:33:11;;;;;;;;;;;;;;;;;;5092301;28;1448;-58
2023/12/29 16:35:36;;;;;;;;;;;;;;;;;;5093784;28;946;-58
2023/12/29 16:38:05;;;;;;;;;;;;;;;;;;5094160;28;1886;-57
2023/12/29 16:40:30;;;;;;;;;;;;;;;;;;5093067;28;969;-57
2023/12/29 16:42:55;;;;;;;;;;;;;;;;;;5093695;28;927;-57
2023/12/29 16:45:20;;;;;;;;;;;;;;;;;;5093746;28;1066;-57
2023/12/29 16:47:46;;;;;;;;;;;;;;;;;;5093821;28;891;-58
2023/12/29 16:50:11;;;;;;;;;;;;;;;;;;5094312;28;895;-58
2023/12/29 16:52:36;;;;;;;;;;;;;;;;;;5092599;28;1613;-57
2023/12/29 16:55:02;;;;;;;;;;;;;;;;;;5092743;28;1058;-57
2023/12/29 16:57:27;;;;;;;;;;;;;;;;;;5092190;28;1901;-59
2023/12/29 16:59:52;;;;;;;;;;;;;;;;;;5084412;28;1239;-57
2023/12/29 17:02:17;;;;;;;;;;;;;;;;;;5068867;28;1195;-58
2023/12/29 17:04:43;;;;;;;;;;;;;;;;;;5077719;28;1892;-58
2023/12/29 17:07:09;;;;;;;;;;;;;;;;;;5093588;28;1222;-58